createdAt,value
2019-04-20T00:00:00.773Z,16.83
2019-04-20T00:02:29.619Z,18.47
2019-04-20T00:04:59.101Z,15.13
2019-04-20T00:07:32.378Z,17.03
2019-04-20T00:10:07.623Z,13.53
2019-04-20T00:12:36.796Z,17.77
2019-04-20T00:15:00.606Z,13.03
2019-04-20T00:17:30.662Z,12.37
2019-04-20T00:20:05.806Z,12.77
2019-04-20T00:22:39.338Z,13.17
2019-04-20T00:25:20.403Z,13.33
2019-04-20T00:28:25.073Z,12.27
2019-04-20T00:30:52.925Z,11.60
2019-04-20T00:33:21.662Z,12.17
2019-04-20T00:35:36.366Z,10.17
2019-04-20T00:38:05.690Z,9.00
2019-04-20T00:40:36.190Z,10.40
2019-04-20T00:43:06.647Z,9.13
2019-04-20T00:45:40.091Z,10.53
2019-04-20T00:48:19.091Z,13.73
2019-04-20T00:50:51.269Z,10.57
2019-04-20T00:53:17.069Z,7.13
2019-04-20T00:55:38.110Z,10.13
2019-04-20T00:58:17.320Z,9.23
2019-04-20T01:01:04.116Z,7.37
2019-04-20T01:03:24.817Z,7.60
2019-04-20T01:06:17.422Z,9.67
2019-04-20T01:08:31.955Z,8.20
2019-04-20T01:11:01.504Z,9.70
2019-04-20T01:13:31.814Z,8.80
2019-04-20T01:16:06.230Z,7.03
2019-04-20T01:18:31.577Z,8.10
2019-04-20T01:21:06.757Z,9.67
2019-04-20T01:23:38.264Z,10.13
2019-04-20T01:26:06.081Z,8.47
2019-04-20T01:28:46.870Z,7.57
2019-04-20T01:31:15.712Z,6.33
2019-04-20T01:33:48.491Z,6.67
2019-04-20T01:36:27.872Z,6.30
2019-04-20T01:38:49.729Z,8.40
2019-04-20T01:41:05.429Z,7.37
2019-04-20T01:43:35.314Z,6.57
2019-04-20T01:46:11.159Z,6.53
2019-04-20T01:48:37.155Z,7.17
2019-04-20T01:51:11.882Z,8.20
2019-04-20T01:53:51.366Z,8.63
2019-04-20T01:56:21.790Z,7.80
2019-04-20T01:58:58.515Z,11.27
2019-04-20T02:01:29.675Z,8.37
2019-04-20T02:04:15.800Z,8.67
2019-04-20T02:06:48.091Z,6.90
2019-04-20T02:09:16.764Z,8.63
2019-04-20T02:11:44.715Z,10.00
2019-04-20T02:14:13.737Z,8.87
2019-04-20T02:16:47.360Z,7.37
2019-04-20T02:19:26.360Z,7.10
2019-04-20T02:22:01.448Z,8.57
2019-04-20T02:24:16.033Z,8.57
2019-04-20T02:26:45.103Z,9.33
2019-04-20T02:29:37.357Z,8.37
2019-04-20T02:34:59.235Z,9.90
2019-04-20T02:37:45.162Z,10.53
2019-04-20T02:40:01.353Z,7.43
2019-04-20T02:42:45.077Z,8.87
2019-04-20T02:45:08.926Z,12.80
2019-04-20T02:50:09.090Z,10.53
2019-04-20T02:55:09.537Z,10.17
2019-04-20T02:57:44.170Z,10.23
2019-04-20T03:02:23.753Z,8.97
2019-04-20T03:04:45.870Z,13.63
2019-04-20T03:07:25.448Z,11.67
2019-04-20T03:09:58.261Z,11.80
2019-04-20T03:12:32.873Z,12.43
2019-04-20T03:14:55.277Z,10.73
2019-04-20T03:17:32.885Z,15.40
2019-04-20T03:19:57.239Z,12.63
2019-04-20T03:22:48.337Z,10.03
2019-04-20T03:25:06.169Z,11.27
2019-04-20T03:27:33.072Z,11.43
2019-04-20T03:30:22.778Z,13.60
2019-04-20T03:35:20.042Z,14.83
2019-04-20T03:37:59.834Z,13.60
2019-04-20T03:40:09.936Z,13.97
2019-04-20T03:42:24.468Z,18.07
2019-04-20T03:45:00.512Z,14.93
2019-04-20T03:47:35.909Z,17.63
2019-04-20T03:50:18.546Z,13.77
2019-04-20T03:52:44.954Z,13.87
2019-04-20T03:55:33.774Z,12.27
2019-04-20T03:58:04.554Z,13.37
2019-04-20T04:00:50.779Z,17.07
2019-04-20T04:03:31.922Z,15.53
2019-04-20T04:06:03.042Z,19.00
2019-04-20T04:08:28.881Z,18.23
2019-04-20T04:11:12.391Z,16.40
2019-04-20T04:13:24.834Z,16.80
2019-04-20T04:15:59.424Z,21.73
2019-04-20T04:18:31.927Z,17.67
2019-04-20T04:21:01.935Z,21.83
2019-04-20T04:23:58.955Z,19.50
2019-04-20T04:26:12.941Z,18.60
2019-04-20T04:28:43.325Z,18.07
2019-04-20T04:31:16.578Z,20.83
2019-04-20T04:36:15.504Z,19.07
2019-04-20T04:38:55.698Z,22.80
2019-04-20T04:41:24.283Z,17.53
2019-04-20T04:43:52.126Z,21.43
2019-04-20T04:46:01.695Z,19.07
2019-04-20T04:48:35.704Z,18.97
2019-04-20T04:51:07.202Z,20.43
2019-04-20T04:53:44.247Z,18.57
2019-04-20T04:56:07.363Z,17.63
2019-04-20T04:58:34.024Z,16.47
2019-04-20T05:01:08.359Z,20.53
2019-04-20T05:03:58.271Z,15.40
2019-04-20T05:06:28.097Z,15.87
2019-04-20T05:08:47.378Z,15.93
2019-04-20T05:11:13.463Z,18.80
2019-04-20T05:13:50.609Z,16.93
2019-04-20T05:16:31.622Z,18.23
2019-04-20T05:19:07.738Z,15.57
2019-04-20T05:21:39.817Z,15.77
2019-04-20T05:24:07.286Z,16.40
2019-04-20T05:26:50.561Z,16.60
2019-04-20T05:29:08.448Z,17.67
2019-04-20T05:31:39.674Z,18.63
2019-04-20T05:34:26.319Z,15.97
2019-04-20T05:36:49.273Z,15.33
2019-04-20T05:39:26.852Z,17.30
2019-04-20T05:41:54.432Z,16.80
2019-04-20T05:44:19.298Z,18.20
2019-04-20T05:47:00.933Z,16.80
2019-04-20T05:49:26.980Z,14.73
2019-04-20T05:51:54.079Z,18.60
2019-04-20T05:54:36.482Z,15.57
2019-04-20T05:57:07.826Z,17.60
2019-04-20T05:59:27.086Z,16.20
2019-04-20T06:02:03.805Z,14.80
2019-04-20T06:04:49.104Z,13.10
2019-04-20T06:07:09.334Z,16.90
2019-04-20T06:09:33.583Z,14.47
2019-04-20T06:12:17.880Z,15.67
2019-04-20T06:14:31.599Z,13.20
2019-04-20T06:17:11.175Z,15.33
2019-04-20T06:19:42.219Z,17.00
2019-04-20T06:22:21.740Z,14.83
2019-04-20T06:25:14.556Z,16.33
2019-04-20T06:27:35.078Z,15.20
2019-04-20T06:30:03.967Z,16.33
2019-04-20T06:33:18.935Z,15.40
2019-04-20T06:36:05.640Z,14.80
2019-04-20T06:38:29.632Z,15.17
2019-04-20T06:43:17.354Z,21.57
2019-04-20T06:45:51.216Z,17.97
2019-04-20T06:48:22.786Z,15.70
2019-04-20T06:50:44.775Z,17.30
2019-04-20T06:53:23.912Z,17.43
2019-04-20T06:56:01.135Z,14.93
2019-04-20T06:58:38.966Z,18.13
2019-04-20T07:00:58.111Z,15.90
2019-04-20T07:03:36.111Z,16.20
2019-04-20T07:06:17.834Z,19.07
2019-04-20T07:08:40.870Z,18.63
2019-04-20T07:10:58.333Z,21.10
2019-04-20T07:13:20.358Z,14.37
2019-04-20T07:15:54.199Z,14.77
2019-04-20T07:18:35.306Z,13.80
2019-04-20T07:21:05.756Z,13.33
2019-04-20T07:23:54.422Z,13.03
2019-04-20T07:26:13.825Z,12.17
2019-04-20T07:28:41.142Z,13.43
2019-04-20T07:31:06.816Z,16.43
2019-04-20T07:33:44.630Z,12.00
2019-04-20T07:36:20.073Z,13.90
2019-04-20T07:38:50.011Z,13.40
2019-04-20T07:41:23.742Z,16.50
2019-04-20T07:43:52.925Z,14.97
2019-04-20T07:46:34.904Z,12.17
2019-04-20T07:48:50.697Z,13.90
2019-04-20T07:51:06.816Z,12.50
2019-04-20T07:53:44.112Z,14.57
2019-04-20T07:56:25.824Z,17.47
2019-04-20T07:58:40.038Z,15.03
2019-04-20T08:01:44.917Z,14.23
2019-04-20T08:04:24.434Z,13.00
2019-04-20T08:06:43.170Z,12.90
2019-04-20T08:09:19.298Z,14.10
2019-04-20T08:12:07.788Z,13.03
2019-04-20T08:14:35.383Z,10.13
2019-04-20T08:17:27.253Z,14.50
2019-04-20T08:19:33.219Z,10.67
2019-04-20T08:22:00.869Z,14.70
2019-04-20T08:24:27.821Z,10.57
2019-04-20T08:26:50.281Z,10.77
2019-04-20T08:29:27.111Z,9.17
2019-04-20T08:32:16.066Z,8.70
2019-04-20T08:34:49.050Z,6.30
2019-04-20T08:37:15.872Z,8.13
2019-04-20T08:39:58.686Z,10.23
2019-04-20T08:42:30.451Z,5.10
2019-04-20T08:47:39.581Z,7.33
2019-04-20T08:53:03.573Z,8.30
2019-04-20T08:55:09.216Z,5.23
2019-04-20T08:57:26.915Z,5.30
2019-04-20T09:00:00.656Z,8.23
2019-04-20T09:02:28.274Z,8.10
2019-04-20T09:05:04.430Z,3.93
2019-04-20T09:07:30.624Z,5.83
2019-04-20T09:10:25.693Z,4.17
2019-04-20T09:12:47.742Z,7.53
2019-04-20T09:14:59.645Z,5.13
2019-04-20T09:17:45.210Z,6.20
2019-04-20T09:20:14.315Z,5.53
2019-04-20T09:23:06.948Z,6.73
2019-04-20T09:28:23.925Z,8.63
2019-04-20T09:31:02.595Z,8.83
2019-04-20T09:33:43.109Z,7.63
2019-04-20T09:36:17.997Z,6.93
2019-04-20T09:39:00.053Z,16.23
2019-04-20T09:41:58.964Z,8.07
2019-04-20T09:44:09.392Z,9.67
2019-04-20T09:46:44.420Z,6.20
2019-04-20T09:49:20.687Z,8.70
2019-04-20T09:51:55.929Z,7.83
2019-04-20T09:54:31.056Z,7.53
2019-04-20T09:57:07.639Z,10.33
2019-04-20T09:59:28.297Z,7.67
2019-04-20T10:01:48.460Z,7.30
2019-04-20T10:04:13.286Z,10.60
2019-04-20T10:06:43.476Z,6.40
2019-04-20T10:09:13.633Z,5.73
2019-04-20T10:11:45.308Z,6.87
2019-04-20T10:14:14.407Z,6.57
2019-04-20T10:16:44.152Z,5.53
2019-04-20T10:19:20.587Z,5.70
2019-04-20T10:21:45.700Z,5.20
2019-04-20T10:24:15.035Z,6.07
2019-04-20T10:26:44.935Z,6.03
2019-04-20T10:29:15.354Z,5.63
2019-04-20T10:31:51.435Z,1.93
2019-04-20T10:34:18.010Z,2.80
2019-04-20T10:36:48.930Z,4.33
2019-04-20T10:39:20.403Z,2.63
2019-04-20T10:41:54.303Z,2.63
2019-04-20T10:44:20.906Z,2.37
2019-04-20T10:46:51.071Z,2.53
2019-04-20T10:49:20.232Z,3.47
2019-04-20T10:51:49.572Z,6.73
2019-04-20T10:54:18.665Z,4.37
2019-04-20T10:56:47.803Z,2.40
2019-04-20T10:59:19.561Z,5.40
2019-04-20T11:01:49.662Z,4.27
2019-04-20T11:04:18.843Z,2.97
2019-04-20T11:06:48.770Z,3.87
2019-04-20T11:09:18.557Z,3.40
2019-04-20T11:11:48.295Z,4.13
2019-04-20T11:14:24.650Z,2.80
2019-04-20T11:16:48.541Z,3.37
2019-04-20T11:19:18.924Z,6.70
2019-04-20T11:21:48.264Z,4.17
2019-04-20T11:24:18.313Z,6.20
2019-04-20T11:26:47.408Z,2.53
2019-04-20T11:29:16.328Z,3.27
2019-04-20T11:31:49.270Z,6.23
2019-04-20T11:34:23.538Z,5.53
2019-04-20T11:36:46.455Z,3.73
2019-04-20T11:39:16.758Z,2.60
2019-04-20T11:41:45.970Z,7.67
2019-04-20T11:44:15.763Z,5.33
2019-04-20T11:46:44.945Z,3.57
2019-04-20T11:49:15.345Z,5.43
2019-04-20T11:51:45.531Z,3.23
2019-04-20T11:54:16.353Z,4.87
2019-04-20T11:56:47.242Z,3.93
2019-04-20T11:59:18.903Z,5.07
2019-04-20T12:01:59.078Z,5.37
2019-04-20T12:04:40.874Z,2.90
2019-04-20T12:07:01.530Z,3.70
2019-04-20T12:09:31.827Z,4.97
2019-04-20T12:12:11.908Z,4.93
2019-04-20T12:14:32.650Z,3.47
2019-04-20T12:17:01.859Z,5.67
2019-04-20T12:19:31.179Z,3.20
2019-04-20T12:22:00.286Z,4.23
2019-04-20T12:24:29.224Z,4.20
2019-04-20T12:26:58.680Z,7.97
2019-04-20T12:29:28.045Z,4.30
2019-04-20T12:32:00.026Z,7.10
2019-04-20T12:34:28.700Z,6.97
2019-04-20T12:36:58.445Z,8.53
2019-04-20T12:39:27.519Z,3.83
2019-04-20T12:42:00.037Z,8.27
2019-04-20T12:44:28.020Z,4.77
2019-04-20T12:46:57.211Z,4.07
2019-04-20T12:49:27.577Z,5.23
2019-04-20T12:52:00.260Z,5.07
2019-04-20T12:54:27.228Z,8.07
2019-04-20T12:56:56.387Z,10.03
2019-04-20T12:59:25.627Z,8.00
2019-04-20T13:01:55.396Z,19.33
2019-04-20T13:04:24.695Z,10.17
2019-04-20T13:06:55.340Z,11.17
2019-04-20T13:09:28.375Z,4.27
2019-04-20T13:12:05.374Z,4.00
2019-04-20T13:14:52.782Z,12.93
2019-04-20T13:17:22.158Z,2.40
2019-04-20T13:19:51.350Z,0.60
2019-04-20T13:22:21.106Z,1.67
2019-04-20T13:24:50.309Z,3.43
2019-04-20T13:27:19.234Z,1.20
2019-04-20T13:29:50.805Z,1.20
2019-04-20T13:32:20.102Z,6.60
2019-04-20T13:34:49.960Z,4.50
2019-04-20T13:37:20.112Z,2.63
2019-04-20T13:39:50.872Z,13.47
2019-04-20T13:42:24.466Z,2.90
2019-04-20T13:44:50.847Z,20.10
2019-04-20T13:47:20.962Z,4.00
2019-04-20T13:49:51.188Z,2.87
2019-04-20T13:52:20.682Z,0.60
2019-04-20T13:54:49.753Z,0.40
2019-04-20T13:57:29.297Z,5.50
2019-04-20T14:00:00.080Z,0.40
2019-04-20T14:02:30.981Z,0.60
2019-04-20T14:05:02.823Z,0.37
2019-04-20T14:07:33.464Z,0.30
2019-04-20T14:10:09.217Z,0.40
2019-04-20T14:13:02.614Z,1.23
2019-04-20T14:15:29.151Z,0.50
2019-04-20T14:18:11.620Z,0.60
2019-04-20T14:20:40.355Z,0.83
2019-04-20T14:23:09.942Z,1.57
2019-04-20T14:25:45.130Z,0.50
2019-04-20T14:28:15.416Z,2.13
2019-04-20T14:30:45.795Z,1.17
2019-04-20T14:33:14.939Z,0.40
2019-04-20T14:35:45.062Z,1.43
2019-04-20T14:38:15.407Z,0.73
2019-04-20T14:40:46.502Z,1.80
2019-04-20T14:43:19.223Z,0.50
2019-04-20T14:45:48.542Z,0.60
2019-04-20T14:48:22.781Z,2.03
2019-04-20T14:50:53.774Z,1.53
2019-04-20T14:53:23.251Z,3.00
2019-04-20T14:55:53.678Z,2.83
2019-04-20T14:58:42.126Z,1.53
2019-04-20T15:01:14.354Z,2.63
2019-04-20T15:03:43.896Z,0.70
2019-04-20T15:06:14.216Z,0.97
2019-04-20T15:08:43.122Z,2.30
2019-04-20T15:11:12.700Z,1.40
2019-04-20T15:13:42.614Z,1.10
2019-04-20T15:16:12.855Z,3.63
2019-04-20T15:18:59.809Z,1.47
2019-04-20T15:21:31.405Z,0.90
2019-04-20T15:24:01.630Z,1.30
2019-04-20T15:26:30.887Z,2.13
2019-04-20T15:29:00.061Z,1.40
2019-04-20T15:31:30.090Z,1.87
2019-04-20T15:33:59.310Z,1.60
2019-04-20T15:36:28.530Z,1.37
2019-04-20T15:38:58.784Z,1.53
2019-04-20T15:41:29.319Z,1.40
2019-04-20T15:43:59.485Z,2.63
2019-04-20T15:46:31.234Z,1.00
2019-04-20T15:48:59.867Z,1.73
2019-04-20T15:51:29.997Z,3.73
2019-04-20T15:53:59.785Z,0.90
2019-04-20T15:56:29.156Z,1.13
2019-04-20T15:58:58.749Z,1.00
2019-04-20T16:01:30.420Z,1.43
2019-04-20T16:04:01.541Z,1.73
2019-04-20T16:06:32.652Z,1.60
2019-04-20T16:09:04.013Z,2.90
2019-04-20T16:11:41.225Z,0.93
2019-04-20T16:14:10.169Z,2.43
2019-04-20T16:16:42.548Z,1.03
2019-04-20T16:19:25.807Z,2.37
2019-04-20T16:21:43.799Z,2.10
2019-04-20T16:24:15.038Z,0.93
2019-04-20T16:26:45.735Z,1.07
2019-04-20T16:29:15.455Z,1.27
2019-04-20T16:31:47.252Z,1.43
2019-04-20T16:34:15.968Z,5.20
2019-04-20T16:36:46.265Z,1.70
2019-04-20T16:39:16.411Z,2.97
2019-04-20T16:41:46.451Z,2.13
2019-04-20T16:44:15.764Z,2.47
2019-04-20T16:46:45.816Z,3.87
2019-04-20T16:49:14.911Z,2.97
2019-04-20T16:51:45.008Z,2.53
2019-04-20T16:54:14.171Z,3.57
2019-04-20T16:56:43.072Z,4.27
2019-04-20T16:59:17.085Z,3.00
2019-04-20T17:01:46.637Z,4.00
2019-04-20T17:04:21.588Z,3.77
2019-04-20T17:07:03.629Z,3.97
2019-04-20T17:09:33.650Z,5.73
2019-04-20T17:12:03.664Z,4.10
2019-04-20T17:14:33.712Z,4.10
2019-04-20T17:17:03.944Z,5.20
2019-04-20T17:19:33.579Z,5.83
2019-04-20T17:22:05.544Z,5.13
2019-04-20T17:24:35.730Z,5.50
2019-04-20T17:27:23.778Z,5.00
2019-04-20T17:30:10.511Z,3.73
2019-04-20T17:32:41.004Z,3.87
2019-04-20T17:35:20.872Z,5.07
2019-04-20T17:37:43.715Z,4.43
2019-04-20T17:40:34.196Z,5.13
2019-04-20T17:42:53.145Z,5.43
2019-04-20T17:45:28.603Z,2.97
2019-04-20T17:48:02.125Z,3.93
2019-04-20T17:50:34.390Z,7.53
2019-04-20T17:53:03.575Z,7.70
2019-04-20T17:55:33.862Z,5.93
2019-04-20T17:57:59.356Z,10.17
2019-04-20T18:00:39.548Z,3.63
2019-04-20T18:03:43.512Z,7.83
2019-04-20T18:05:59.528Z,4.43
2019-04-20T18:08:33.520Z,5.50
2019-04-20T18:10:53.078Z,10.80
2019-04-20T18:13:20.368Z,9.87
2019-04-20T18:15:56.243Z,8.40
2019-04-20T18:18:42.091Z,7.30
2019-04-20T18:20:58.989Z,5.50
2019-04-20T18:23:34.411Z,7.87
2019-04-20T18:26:24.132Z,6.90
2019-04-20T18:28:52.912Z,7.50
2019-04-20T18:31:17.611Z,6.10
2019-04-20T18:33:46.921Z,6.70
2019-04-20T18:36:23.347Z,7.53
2019-04-20T18:38:56.013Z,7.63
2019-04-20T18:41:31.942Z,8.03
2019-04-20T18:43:53.475Z,7.17
2019-04-20T18:46:39.683Z,6.53
2019-04-20T18:49:06.918Z,10.30
2019-04-20T18:51:19.680Z,7.67
2019-04-20T18:53:50.455Z,9.73
2019-04-20T18:56:27.887Z,11.50
2019-04-20T18:58:51.183Z,7.10
2019-04-20T19:01:27.919Z,7.37
2019-04-20T19:03:54.024Z,8.07
2019-04-20T19:06:23.484Z,11.07
2019-04-20T19:08:53.767Z,12.97
2019-04-20T19:11:24.138Z,9.70
2019-04-20T19:14:14.847Z,12.73
2019-04-20T19:16:56.225Z,14.87
2019-04-20T19:19:28.128Z,12.00
2019-04-20T19:21:49.996Z,8.10
2019-04-20T19:24:21.787Z,8.23
2019-04-20T19:26:54.330Z,7.70
2019-04-20T19:29:30.082Z,6.57
2019-04-20T19:32:13.344Z,11.80
2019-04-20T19:34:38.048Z,5.93
2019-04-20T19:37:07.260Z,6.17
2019-04-20T19:39:39.857Z,8.33
2019-04-20T19:42:13.149Z,6.77
2019-04-20T19:44:53.808Z,5.90
2019-04-20T19:47:34.818Z,6.93
2019-04-20T19:50:00.406Z,9.03
2019-04-20T19:52:43.278Z,9.03
2019-04-20T19:55:06.989Z,10.47
2019-04-20T19:57:42.920Z,12.27
2019-04-20T19:59:58.180Z,11.37
2019-04-20T20:02:27.666Z,11.57
2019-04-20T20:05:02.699Z,10.30
2019-04-20T20:07:38.725Z,8.50
2019-04-20T20:10:08.623Z,9.63
2019-04-20T20:12:35.682Z,13.20
2019-04-20T20:15:14.815Z,9.43
2019-04-20T20:18:01.999Z,8.83
2019-04-20T20:20:32.387Z,12.03
2019-04-20T20:22:45.434Z,9.80
2019-04-20T20:25:17.043Z,11.77
2019-04-20T20:27:54.365Z,12.60
2019-04-20T20:30:32.845Z,9.40
2019-04-20T20:33:13.879Z,13.20
2019-04-20T20:35:29.316Z,9.60
2019-04-20T20:37:59.466Z,9.03
2019-04-20T20:40:32.804Z,12.93
2019-04-20T20:43:07.366Z,11.90
2019-04-20T20:45:38.336Z,10.00
2019-04-20T20:48:15.866Z,10.13
2019-04-20T20:50:50.193Z,10.27
2019-04-20T20:53:14.171Z,8.83
2019-04-20T20:55:40.723Z,8.73
2019-04-20T20:58:11.529Z,9.10
2019-04-20T21:00:45.821Z,11.63
2019-04-20T21:03:09.122Z,9.17
2019-04-20T21:05:35.671Z,8.07
2019-04-20T21:08:05.822Z,9.20
2019-04-20T21:10:40.466Z,7.37
2019-04-20T21:13:10.254Z,8.23
2019-04-20T21:15:40.583Z,8.67
2019-04-20T21:18:33.721Z,9.93
2019-04-20T21:21:02.056Z,10.93
2019-04-20T21:23:33.415Z,14.63
2019-04-20T21:26:12.714Z,10.40
2019-04-20T21:28:40.030Z,14.57
2019-04-20T21:31:15.977Z,13.73
2019-04-20T21:33:41.068Z,12.17
2019-04-20T21:36:13.452Z,11.07
2019-04-20T21:38:45.179Z,9.87
2019-04-20T21:41:18.592Z,11.77
2019-04-20T21:43:46.390Z,12.33
2019-04-20T21:46:16.559Z,13.37
2019-04-20T21:48:59.739Z,13.97
2019-04-20T21:51:30.379Z,11.00
2019-04-20T21:53:48.316Z,10.37
2019-04-20T21:56:24.232Z,13.03
2019-04-20T21:58:57.537Z,11.83
2019-04-20T22:01:32.342Z,13.33
2019-04-20T22:03:56.269Z,14.03
2019-04-20T22:06:26.637Z,12.93
2019-04-20T22:08:59.943Z,13.07
2019-04-20T22:11:27.170Z,10.73
2019-04-20T22:13:57.377Z,13.43
2019-04-20T22:16:36.384Z,11.67
2019-04-20T22:19:11.777Z,13.47
2019-04-20T22:21:45.058Z,14.97
2019-04-20T22:24:09.431Z,14.83
2019-04-20T22:26:39.423Z,19.07
2019-04-20T22:29:00.467Z,21.43
2019-04-20T22:31:29.905Z,15.67
2019-04-20T22:34:02.339Z,14.53
2019-04-20T22:36:34.408Z,14.40
2019-04-20T22:39:11.736Z,18.67
2019-04-20T22:41:48.241Z,21.07
2019-04-20T22:44:18.742Z,16.90
2019-04-20T22:46:45.561Z,15.80
2019-04-20T22:49:33.087Z,14.50
2019-04-20T22:51:55.718Z,13.10
2019-04-20T22:54:34.034Z,16.03
2019-04-20T22:56:57.003Z,13.57
2019-04-20T22:59:21.088Z,15.17
2019-04-20T23:01:53.598Z,17.27
2019-04-20T23:04:19.158Z,15.57
2019-04-20T23:06:50.280Z,14.50
2019-04-20T23:09:20.471Z,17.13
2019-04-20T23:11:49.562Z,16.17
2019-04-20T23:14:18.456Z,19.47
2019-04-20T23:16:51.788Z,20.27
2019-04-20T23:19:30.008Z,16.77
2019-04-20T23:21:55.729Z,15.43
2019-04-20T23:24:20.525Z,13.03
2019-04-20T23:26:50.834Z,15.33
2019-04-20T23:29:22.647Z,16.43
2019-04-20T23:31:55.621Z,12.93
2019-04-20T23:34:24.755Z,13.97
2019-04-20T23:36:52.443Z,11.67
2019-04-20T23:39:23.239Z,14.30
2019-04-20T23:41:57.995Z,12.73
2019-04-20T23:44:31.554Z,14.17
2019-04-20T23:47:11.169Z,15.33
2019-04-20T23:49:53.962Z,15.13
2019-04-20T23:52:32.381Z,13.87
2019-04-20T23:54:46.668Z,14.60
2019-04-20T23:57:08.122Z,14.83
2019-04-20T23:59:40.835Z,15.17
